Time;durP1;ratioP1;P1;durP2;ratioP2;P2;SDS_P1;SDS_P2;PMS_P1;PMS_P2;Temp;Humidity;BMP_temperature;BMP_pressure;BME280_temperature;BME280_humidity;BME280_pressure;Samples;Min_cycle;Max_cycle;Signal;HPM_P1;HPM_P2
2022/02/19 00:01:06;;;;;;;;;;;;;;;18.28;36.03;100393.34;4994959;28;19914;-62
2022/02/19 00:03:31;;;;;;;;;;;;;;;18.26;36.31;100391.81;4994099;28;19917;-62
2022/02/19 00:05:56;;;;;;;;;;;;;;;18.23;36.21;100394.72;4994971;28;20365;-62
2022/02/19 00:08:22;;;;;;;;;;;;;;;18.20;36.06;100403.75;4994417;28;19914;-62
2022/02/19 00:10:47;;;;;;;;;;;;;;;18.20;36.66;100397.63;4994089;28;19917;-62
2022/02/19 00:13:14;;;;;;;;;;;;;;;18.16;36.47;100415.53;4994648;28;20366;-62
2022/02/19 00:15:40;;;;;;;;;;;;;;;18.14;36.77;100414.84;4994561;28;20285;-62
2022/02/19 00:18:05;;;;;;;;;;;;;;;18.12;36.85;100433.44;4993951;28;19918;-62
2022/02/19 00:20:39;;;;;;;;;;;;;;;18.10;36.91;100429.25;4994381;28;19913;-62
2022/02/19 00:23:04;;;;;;;;;;;;;;;18.06;36.80;100427.88;4994852;28;19913;-62
2022/02/19 00:25:30;;;;;;;;;;;;;;;18.05;36.91;100447.28;4993601;28;19960;-62
2022/02/19 00:27:57;;;;;;;;;;;;;;;18.03;37.43;100446.59;4994819;28;19960;-62
2022/02/19 00:30:22;;;;;;;;;;;;;;;18.02;37.75;100444.91;4994423;28;19914;-62
2022/02/19 00:32:48;;;;;;;;;;;;;;;18.01;36.86;100457.28;4993775;28;20008;-61
2022/02/19 00:35:14;;;;;;;;;;;;;;;17.99;37.66;100474.19;4994517;28;19909;-61
2022/02/19 00:37:39;;;;;;;;;;;;;;;17.96;37.66;100454.22;4994180;28;19924;-61
2022/02/19 00:40:05;;;;;;;;;;;;;;;17.95;37.61;100468.34;4994015;28;19921;-62
2022/02/19 00:42:30;;;;;;;;;;;;;;;17.93;37.88;100473.75;4994335;28;19925;-62
2022/02/19 00:44:56;;;;;;;;;;;;;;;17.91;37.44;100474.84;4993709;28;20285;-62
2022/02/19 00:47:21;;;;;;;;;;;;;;;17.88;37.62;100468.03;4994027;28;19918;-62
2022/02/19 00:49:46;;;;;;;;;;;;;;;17.87;37.62;100474.25;4994298;28;19917;-62
2022/02/19 00:52:12;;;;;;;;;;;;;;;17.85;37.89;100492.00;4992970;28;19936;-62
2022/02/19 00:54:37;;;;;;;;;;;;;;;17.83;37.76;100490.44;4993969;28;20304;-62
2022/02/19 00:57:02;;;;;;;;;;;;;;;17.81;37.66;100498.50;4994280;28;20288;-62
2022/02/19 00:59:27;;;;;;;;;;;;;;;17.80;37.58;100496.84;4993024;28;19968;-62
2022/02/19 01:01:52;;;;;;;;;;;;;;;17.77;37.78;100516.38;4994184;28;19914;-62
2022/02/19 01:04:21;;;;;;;;;;;;;;;17.75;37.77;100507.78;4993486;28;19917;-62
2022/02/19 01:06:46;;;;;;;;;;;;;;;17.72;37.75;100513.31;4993245;28;19917;-62
2022/02/19 01:09:11;;;;;;;;;;;;;;;17.70;37.46;100509.94;4993524;28;19968;-62
2022/02/19 01:11:39;;;;;;;;;;;;;;;17.69;37.50;100529.38;4993976;28;20283;-62
2022/02/19 01:14:05;;;;;;;;;;;;;;;17.66;37.70;100536.72;4993257;28;20340;-62
2022/02/19 01:16:30;;;;;;;;;;;;;;;17.63;38.21;100545.69;4993434;28;19913;-62
2022/02/19 01:18:55;;;;;;;;;;;;;;;17.64;38.06;100543.88;4993869;28;19960;-62
2022/02/19 01:21:20;;;;;;;;;;;;;;;17.61;38.31;100555.53;4992697;28;19913;-62
2022/02/19 01:23:46;;;;;;;;;;;;;;;17.59;38.31;100558.31;4993805;28;19909;-62
2022/02/19 01:26:11;;;;;;;;;;;;;;;17.58;38.62;100561.88;4993559;28;19917;-62
2022/02/19 01:28:37;;;;;;;;;;;;;;;17.57;38.19;100565.47;4992889;28;20011;-62
2022/02/19 01:31:02;;;;;;;;;;;;;;;17.56;38.12;100569.09;4993801;28;20289;-61
2022/02/19 01:33:27;;;;;;;;;;;;;;;17.55;38.41;100574.50;4992995;28;19964;-62
2022/02/19 01:35:52;;;;;;;;;;;;;;;17.53;38.10;100573.75;4992877;28;20322;-61
2022/02/19 01:38:18;;;;;;;;;;;;;;;17.53;38.22;100584.31;4993226;28;20347;-61
2022/02/19 01:40:44;;;;;;;;;;;;;;;17.51;38.18;100583.59;4993334;28;19918;-61
2022/02/19 01:43:10;;;;;;;;;;;;;;;17.49;38.46;100581.09;4992468;28;20000;-61
2022/02/19 01:45:36;;;;;;;;;;;;;;;17.48;38.60;100594.38;4993552;28;19913;-61
2022/02/19 01:48:01;;;;;;;;;;;;;;;17.47;38.25;100608.53;4992881;28;19918;-61
2022/02/19 01:50:26;;;;;;;;;;;;;;;17.49;37.95;100614.50;4993049;28;19917;-62
2022/02/19 01:52:51;;;;;;;;;;;;;;;17.50;38.19;100622.28;4993345;28;19925;-61
2022/02/19 01:55:16;;;;;;;;;;;;;;;17.55;37.61;100641.19;4992548;28;20366;-62
2022/02/19 01:57:42;;;;;;;;;;;;;;;17.58;38.49;100633.03;4993336;28;19921;-61
2022/02/19 02:00:08;;;;;;;;;;;;;;;17.61;37.50;100634.59;4993186;28;20299;-62
2022/02/19 02:02:33;;;;;;;;;;;;;;;17.64;37.44;100644.03;4992768;28;20400;-61
2022/02/19 02:04:59;;;;;;;;;;;;;;;17.65;36.90;100659.72;4997298;28;19918;-62
2022/02/19 02:07:24;;;;;;;;;;;;;;;17.67;37.33;100659.59;4996951;28;20007;-61
2022/02/19 02:09:49;;;;;;;;;;;;;;;17.69;37.23;100670.84;4996815;28;19914;-61
2022/02/19 02:12:15;;;;;;;;;;;;;;;17.69;36.97;100647.13;4997201;28;19980;-61
2022/02/19 02:14:41;;;;;;;;;;;;;;;17.71;37.22;100671.56;4997275;28;19921;-61
2022/02/19 02:17:08;;;;;;;;;;;;;;;17.71;37.33;100679.47;4996269;28;20061;-61
2022/02/19 02:19:34;;;;;;;;;;;;;;;17.71;37.05;100687.38;4996963;28;19920;-61
2022/02/19 02:21:59;;;;;;;;;;;;;;;17.71;37.20;100687.38;4997052;28;19924;-61
2022/02/19 02:24:25;;;;;;;;;;;;;;;17.70;37.34;100675.97;4995977;28;19914;-61
2022/02/19 02:26:50;;;;;;;;;;;;;;;17.71;36.78;100690.00;4997010;28;20309;-61
2022/02/19 02:29:16;;;;;;;;;;;;;;;17.70;36.75;100702.34;4996756;28;19909;-61
2022/02/19 02:31:41;;;;;;;;;;;;;;;17.71;36.22;100692.66;4996159;28;19940;-61
2022/02/19 02:34:06;;;;;;;;;;;;;;;17.71;36.55;100703.19;4996704;28;20012;-61
2022/02/19 02:36:31;;;;;;;;;;;;;;;17.70;36.60;100697.06;4996543;28;19914;-61
2022/02/19 02:38:58;;;;;;;;;;;;;;;17.70;36.88;100722.59;4995995;28;19920;-61
2022/02/19 02:41:23;;;;;;;;;;;;;;;17.68;36.59;100716.63;4996596;28;19920;-61
2022/02/19 02:43:49;;;;;;;;;;;;;;;17.68;36.99;100727.16;4996836;28;20012;-61
2022/02/19 02:46:14;;;;;;;;;;;;;;;17.68;37.49;100721.88;4995642;28;19975;-61
2022/02/19 02:48:39;;;;;;;;;;;;;;;17.70;37.44;100727.88;4996581;28;19914;-61
2022/02/19 02:51:05;;;;;;;;;;;;;;;17.70;37.48;100726.06;4996451;28;19917;-61
2022/02/19 02:53:30;;;;;;;;;;;;;;;17.72;37.12;100725.94;4995337;28;19913;-61
2022/02/19 02:55:56;;;;;;;;;;;;;;;17.73;36.84;100749.53;4996671;28;20379;-61
2022/02/19 02:58:21;;;;;;;;;;;;;;;17.73;37.24;100749.53;4995297;28;20326;-62
2022/02/19 03:00:46;;;;;;;;;;;;;;;17.74;37.34;100740.69;4996544;28;19917;-61
2022/02/19 03:03:11;;;;;;;;;;;;;;;17.75;37.11;100746.78;4996100;28;20384;-61
2022/02/19 03:05:37;;;;;;;;;;;;;;;17.75;37.46;100754.69;4995195;28;20008;-61
2022/02/19 03:08:02;;;;;;;;;;;;;;;17.76;37.13;100764.28;4996226;28;19914;-61
2022/02/19 03:10:27;;;;;;;;;;;;;;;17.76;37.35;100766.91;4996010;28;20374;-61
2022/02/19 03:12:55;;;;;;;;;;;;;;;17.76;37.71;100774.81;4995496;28;19918;-61
2022/02/19 03:15:21;;;;;;;;;;;;;;;17.75;37.16;100787.16;4995608;28;19924;-62
2022/02/19 03:17:47;;;;;;;;;;;;;;;17.77;36.96;100781.78;4996077;28;20321;-61
2022/02/19 03:20:14;;;;;;;;;;;;;;;17.75;37.17;100794.22;4995323;28;19914;-61
2022/02/19 03:22:39;;;;;;;;;;;;;;;17.75;37.30;100796.84;4995884;28;19922;-61
2022/02/19 03:25:04;;;;;;;;;;;;;;;17.74;37.22;100808.38;4996083;28;19913;-61
2022/02/19 03:27:30;;;;;;;;;;;;;;;17.73;36.48;100807.53;4994791;28;20293;-61
2022/02/19 03:29:55;;;;;;;;;;;;;;;17.72;36.78;100824.31;4995971;28;20051;-62
2022/02/19 03:32:20;;;;;;;;;;;;;;;17.70;36.78;100804.31;4995404;28;19910;-62
2022/02/19 03:34:45;;;;;;;;;;;;;;;17.70;36.83;100825.38;4995002;28;19913;-62
2022/02/19 03:37:11;;;;;;;;;;;;;;;17.70;37.31;100830.66;4995247;28;19913;-62
2022/02/19 03:39:36;;;;;;;;;;;;;;;17.69;37.82;100837.75;4995650;28;19921;-62
2022/02/19 03:42:01;;;;;;;;;;;;;;;17.71;38.00;100827.06;4995127;28;19956;-62
2022/02/19 03:44:26;;;;;;;;;;;;;;;17.70;38.01;100834.13;4995381;28;20401;-62
2022/02/19 03:46:51;;;;;;;;;;;;;;;17.71;37.42;100834.97;4995569;28;19913;-62
2022/02/19 03:49:17;;;;;;;;;;;;;;;17.72;37.40;100848.03;4994490;28;19917;-62
2022/02/19 03:51:48;;;;;;;;;;;;;;;17.74;37.87;100851.38;4995252;28;19992;-62
2022/02/19 03:54:13;;;;;;;;;;;;;;;17.75;37.42;100852.22;4995027;28;19977;-62
2022/02/19 03:56:38;;;;;;;;;;;;;;;17.74;37.14;100861.91;4994501;28;19969;-62
2022/02/19 03:59:04;;;;;;;;;;;;;;;17.74;37.20;100869.84;4995330;28;19929;-62
2022/02/19 04:01:29;;;;;;;;;;;;;;;17.75;37.40;100874.16;4994977;28;19921;-62
2022/02/19 04:03:54;;;;;;;;;;;;;;;17.75;37.27;100879.44;4994327;28;19917;-61
2022/02/19 04:06:19;;;;;;;;;;;;;;;17.76;37.56;100885.53;4994676;28;19929;-62
2022/02/19 04:08:45;;;;;;;;;;;;;;;17.77;37.74;100897.75;4994330;28;19917;-62
2022/02/19 04:11:10;;;;;;;;;;;;;;;17.77;37.42;100897.75;4994940;28;19993;-62
2022/02/19 04:13:36;;;;;;;;;;;;;;;17.79;37.49;100906.38;4995026;28;19918;-61
2022/02/19 04:16:01;;;;;;;;;;;;;;;17.80;37.67;100905.44;4994415;28;19933;-61
2022/02/19 04:18:28;;;;;;;;;;;;;;;17.79;37.06;100901.09;4994500;28;19917;-61
2022/02/19 04:20:53;;;;;;;;;;;;;;;17.80;36.86;100917.75;4994811;28;19914;-61
2022/02/19 04:23:18;;;;;;;;;;;;;;;17.81;37.15;100917.63;4993937;28;19914;-61
2022/02/19 04:25:43;;;;;;;;;;;;;;;17.80;36.88;100929.16;4993987;28;19916;-61
2022/02/19 04:28:10;;;;;;;;;;;;;;;17.80;36.90;100921.25;4994458;28;19968;-62
2022/02/19 04:30:35;;;;;;;;;;;;;;;17.80;37.18;100934.44;4993951;28;19929;-62
2022/02/19 04:33:00;;;;;;;;;;;;;;;17.80;37.32;100937.06;4994637;28;19914;-63
2022/02/19 04:35:26;;;;;;;;;;;;;;;17.80;37.36;100938.84;4994184;28;19925;-62
2022/02/19 04:37:51;;;;;;;;;;;;;;;17.80;37.32;100947.59;4993625;28;20357;-62
2022/02/19 04:40:17;;;;;;;;;;;;;;;17.80;37.22;100949.38;4994167;28;19953;-62
2022/02/19 04:42:45;;;;;;;;;;;;;;;17.80;37.25;100942.34;4994439;28;19921;-62
2022/02/19 04:45:10;;;;;;;;;;;;;;;17.80;37.87;100952.88;4993168;28;20286;-62
2022/02/19 04:47:36;;;;;;;;;;;;;;;17.82;37.63;100952.75;4994162;28;20020;-62
2022/02/19 04:50:01;;;;;;;;;;;;;;;17.82;37.11;100958.84;4994305;28;19920;-62
2022/02/19 04:52:29;;;;;;;;;;;;;;;17.82;36.93;100977.31;4992974;28;20395;-62
2022/02/19 04:54:55;;;;;;;;;;;;;;;17.81;36.57;100973.00;4994275;28;19922;-62
2022/02/19 04:57:20;;;;;;;;;;;;;;;17.82;37.25;100984.41;4993850;28;19924;-62
2022/02/19 04:59:45;;;;;;;;;;;;;;;17.81;37.12;100982.72;4993366;28;20361;-63
2022/02/19 05:02:10;;;;;;;;;;;;;;;17.82;37.70;100987.03;4993796;28;19957;-62
2022/02/19 05:04:36;;;;;;;;;;;;;;;17.81;37.40;100991.44;4993902;28;19987;-62
2022/02/19 05:07:01;;;;;;;;;;;;;;;17.80;37.68;101000.34;4993264;28;19921;-62
2022/02/19 05:09:26;;;;;;;;;;;;;;;17.80;37.67;100992.41;4993645;28;20072;-62
2022/02/19 05:11:51;;;;;;;;;;;;;;;17.80;37.95;100997.69;4993974;28;20361;-62
2022/02/19 05:14:16;;;;;;;;;;;;;;;17.80;38.74;101002.97;4992716;28;20384;-62
2022/02/19 05:16:42;;;;;;;;;;;;;;;17.81;39.14;101009.06;4993856;28;20397;-62
2022/02/19 05:19:07;;;;;;;;;;;;;;;17.83;39.12;101009.78;4992691;28;19914;-62
2022/02/19 05:21:33;;;;;;;;;;;;;;;17.83;39.28;101021.19;4993740;28;20377;-62
2022/02/19 05:23:58;;;;;;;;;;;;;;;17.84;39.30;101030.75;4993832;28;19914;-62
2022/02/19 05:26:23;;;;;;;;;;;;;;;17.84;38.76;101022.84;4992534;28;19964;-62
2022/02/19 05:28:48;;;;;;;;;;;;;;;17.85;39.15;101027.16;4993615;28;20012;-62
2022/02/19 05:31:14;;;;;;;;;;;;;;;17.85;38.66;101031.59;4993404;28;19921;-62
2022/02/19 05:33:39;;;;;;;;;;;;;;;17.85;38.63;101026.31;4992663;28;19972;-62
2022/02/19 05:36:04;;;;;;;;;;;;;;;17.86;38.61;101028.00;4993509;28;19960;-62
2022/02/19 05:38:29;;;;;;;;;;;;;;;17.85;38.58;101026.31;4992272;28;20354;-62
2022/02/19 05:40:54;;;;;;;;;;;;;;;17.85;38.51;101023.69;4992457;28;19953;-62
2022/02/19 05:43:20;;;;;;;;;;;;;;;17.85;38.32;101048.25;4993000;28;19918;-62
2022/02/19 05:45:47;;;;;;;;;;;;;;;17.85;38.63;101044.75;4993490;28;19914;-62
2022/02/19 05:48:13;;;;;;;;;;;;;;;17.84;38.79;101051.84;4992320;28;19918;-62
2022/02/19 05:50:38;;;;;;;;;;;;;;;17.84;39.21;101046.56;4993588;28;19914;-62
2022/02/19 05:53:04;;;;;;;;;;;;;;;17.86;39.09;101054.38;4993655;28;19976;-62
2022/02/19 05:55:32;;;;;;;;;;;;;;;17.85;38.74;101064.09;4992201;28;19914;-62
2022/02/19 05:57:57;;;;;;;;;;;;;;;17.86;39.05;101065.75;4993306;28;19925;-62
2022/02/19 06:00:22;;;;;;;;;;;;;;;17.85;38.49;101063.22;4992988;28;19914;-62
2022/02/19 06:02:48;;;;;;;;;;;;;;;17.86;38.53;101067.53;4992547;28;20386;-63
2022/02/19 06:05:13;;;;;;;;;;;;;;;17.85;38.77;101068.50;4992899;28;20008;-62
2022/02/19 06:07:38;;;;;;;;;;;;;;;17.85;39.02;101064.09;4993301;28;19928;-61
2022/02/19 06:10:03;;;;;;;;;;;;;;;17.88;39.48;101069.16;4992689;28;19921;-61
2022/02/19 06:12:29;;;;;;;;;;;;;;;17.91;40.17;101070.69;4992733;28;19921;-61
2022/02/19 06:14:54;;;;;;;;;;;;;;;17.93;40.61;101074.06;4993221;28;19965;-61
2022/02/19 06:17:19;;;;;;;;;;;;;;;17.96;40.62;101081.75;4992108;28;19918;-61
2022/02/19 06:19:44;;;;;;;;;;;;;;;17.98;40.33;101071.91;4993240;28;20285;-61
2022/02/19 06:22:09;;;;;;;;;;;;;;;18.02;40.48;101083.88;4993022;28;19914;-61
2022/02/19 06:24:35;;;;;;;;;;;;;;;18.07;40.84;101089.69;4992511;28;20239;-62
2022/02/19 06:27:01;;;;;;;;;;;;;;;18.10;40.98;101089.44;4993220;28;20285;-62
2022/02/19 06:29:26;;;;;;;;;;;;;;;18.13;41.11;101085.72;4992051;28;19931;-62
2022/02/19 06:31:52;;;;;;;;;;;;;;;18.16;40.67;101092.56;4993161;28;19921;-61
2022/02/19 06:34:23;;;;;;;;;;;;;;;18.18;41.18;101095.91;4992703;28;19913;-61
2022/02/19 06:36:48;;;;;;;;;;;;;;;18.19;40.71;101087.88;4992377;28;19920;-61
2022/02/19 06:39:16;;;;;;;;;;;;;;;18.21;40.38;101106.22;4992837;28;19914;-62
2022/02/19 06:41:41;;;;;;;;;;;;;;;18.22;40.28;101108.75;4993036;28;19913;-62
2022/02/19 06:44:07;;;;;;;;;;;;;;;18.23;40.35;101110.44;4992051;28;20377;-62
2022/02/19 06:46:32;;;;;;;;;;;;;;;18.25;40.78;101112.94;4992779;28;19985;-62
2022/02/19 06:48:57;;;;;;;;;;;;;;;18.26;40.56;101120.75;4993969;28;20374;-62
2022/02/19 06:51:23;;;;;;;;;;;;;;;18.29;40.96;101127.56;4995566;28;20424;-62
2022/02/19 06:53:48;;;;;;;;;;;;;;;18.29;41.13;101131.06;4996587;28;20403;-62
2022/02/19 06:56:13;;;;;;;;;;;;;;;18.31;41.14;101146.78;4996097;28;20370;-62
2022/02/19 06:58:38;;;;;;;;;;;;;;;18.32;41.00;101145.81;4995363;28;19921;-62
2022/02/19 07:01:03;;;;;;;;;;;;;;;18.34;40.66;101156.25;4996261;28;19914;-62
2022/02/19 07:03:29;;;;;;;;;;;;;;;18.35;41.04;101156.13;4995677;28;20404;-62
2022/02/19 07:05:54;;;;;;;;;;;;;;;18.36;40.58;101160.44;4995306;28;20440;-62
2022/02/19 07:08:22;;;;;;;;;;;;;;;18.37;40.79;101161.28;4995965;28;19914;-62
2022/02/19 07:10:48;;;;;;;;;;;;;;;18.38;40.62;101176.16;4996135;28;19917;-62
2022/02/19 07:13:13;;;;;;;;;;;;;;;18.37;39.81;101180.59;4995140;28;20267;-62
2022/02/19 07:15:39;;;;;;;;;;;;;;;18.38;40.61;101178.81;4996512;28;19918;-62
2022/02/19 07:18:04;;;;;;;;;;;;;;;18.41;41.27;101187.31;4996071;28;19921;-62
2022/02/19 07:20:33;;;;;;;;;;;;;;;18.45;41.16;101188.78;4994569;28;19921;-63
2022/02/19 07:23:02;;;;;;;;;;;;;;;18.48;41.63;101193.81;4995902;28;20280;-63
2022/02/19 07:25:27;;;;;;;;;;;;;;;18.50;41.24;101196.34;4995529;28;20008;-64
2022/02/19 07:27:52;;;;;;;;;;;;;;;18.54;41.64;101202.22;4995047;28;20009;-63
2022/02/19 07:30:18;;;;;;;;;;;;;;;18.55;41.89;101210.00;4995391;28;20263;-65
2022/02/19 07:32:44;;;;;;;;;;;;;;;18.57;41.81;101209.91;4994800;28;19933;-64
2022/02/19 07:35:10;;;;;;;;;;;;;;;18.57;39.40;101221.28;4995537;28;20298;-65
2022/02/19 07:37:36;;;;;;;;;;;;;;;18.58;40.65;101216.84;4995437;28;20385;-66
2022/02/19 07:40:02;;;;;;;;;;;;;;;18.60;41.10;101220.22;4994938;28;20348;-67
2022/02/19 07:42:27;;;;;;;;;;;;;;;18.63;41.37;101220.81;4995090;28;20373;-66
2022/02/19 07:44:53;;;;;;;;;;;;;;;18.65;41.88;101229.44;4995319;28;20001;-65
2022/02/19 07:47:24;;;;;;;;;;;;;;;18.68;41.90;101228.38;4994620;28;19924;-65
2022/02/19 07:58:19;;;;;;;;;;;;;;;18.75;41.43;101237.50;5000453;28;20384;-65
2022/02/19 08:00:55;;;;;;;;;;;;;;;18.77;41.21;101247.94;4994272;28;19918;-66
2022/02/19 08:03:21;;;;;;;;;;;;;;;18.78;41.68;101246.97;4994735;28;19913;-66
2022/02/19 08:05:46;;;;;;;;;;;;;;;18.79;41.85;101249.50;4994875;28;19940;-66
2022/02/19 08:08:14;;;;;;;;;;;;;;;18.81;42.04;101244.94;4993948;28;19921;-66
2022/02/19 08:10:39;;;;;;;;;;;;;;;18.84;41.82;101244.72;4994840;28;20429;-68
2022/02/19 08:13:07;;;;;;;;;;;;;;;18.88;42.15;101253.25;4995108;28;20020;-67
2022/02/19 08:15:34;;;;;;;;;;;;;;;18.91;42.50;101242.44;4994106;28;19917;-68
2022/02/19 08:17:59;;;;;;;;;;;;;;;18.94;42.85;101263.34;4994666;28;20389;-67
2022/02/19 08:20:24;;;;;;;;;;;;;;;18.96;42.30;101260.56;4994394;28;19918;-66
2022/02/19 08:22:49;;;;;;;;;;;;;;;18.99;43.16;101265.63;4994177;28;19963;-66
2022/02/19 08:25:15;;;;;;;;;;;;;;;19.01;42.42;101258.44;4994531;28;20362;-67
2022/02/19 08:27:40;;;;;;;;;;;;;;;19.03;42.34;101267.06;4994693;28;20024;-65
2022/02/19 08:30:06;;;;;;;;;;;;;;;19.06;42.44;101282.69;4993838;28;20388;-63
2022/02/19 08:32:31;;;;;;;;;;;;;;;19.11;41.18;101280.50;4994381;28;19913;-67
2022/02/19 08:34:57;;;;;;;;;;;;;;;19.12;42.06;101283.97;4994450;28;19928;-68
2022/02/19 08:37:25;;;;;;;;;;;;;;;19.13;42.08;101283.03;4993115;28;20380;-68
2022/02/19 08:39:51;;;;;;;;;;;;;;;19.12;42.19;101289.28;4994591;28;19914;-67
2022/02/19 08:42:16;;;;;;;;;;;;;;;19.08;40.79;101293.13;4994300;28;19960;-65
2022/02/19 08:44:41;;;;;;;;;;;;;;;19.05;41.85;101301.28;4993407;28;19924;-67
2022/02/19 08:47:10;;;;;;;;;;;;;;;19.01;41.12;101290.13;4994123;28;19918;-68
2022/02/19 08:49:35;;;;;;;;;;;;;;;18.99;42.01;101303.47;4994137;28;19921;-67
2022/02/19 08:52:00;;;;;;;;;;;;;;;18.99;42.32;101302.59;4993365;28;19960;-66
2022/02/19 08:54:26;;;;;;;;;;;;;;;18.99;41.79;101314.03;4994064;28;19948;-67
2022/02/19 08:56:51;;;;;;;;;;;;;;;19.01;42.23;101319.19;4994349;28;20362;-67
2022/02/19 08:59:20;;;;;;;;;;;;;;;19.02;41.93;101312.94;4992905;28;19918;-68
2022/02/19 09:01:45;;;;;;;;;;;;;;;19.02;41.79;101307.66;4993986;28;19917;-68
2022/02/19 09:04:11;;;;;;;;;;;;;;;18.99;40.78;101315.81;4992631;28;20405;-68
2022/02/19 09:06:36;;;;;;;;;;;;;;;18.97;41.38;101309.81;4994077;28;19914;-66
2022/02/19 09:09:08;;;;;;;8.15;1.90;;;;;;;18.97;42.35;101323.00;4993907;28;19913;-66
2022/02/19 09:11:34;;;;;;;;;;;;;;;19.05;41.87;101315.34;4993039;28;20349;-66
2022/02/19 09:14:03;;;;;;;;;;;;;;;19.14;42.42;101313.78;4994202;28;19925;-66
2022/02/19 09:16:34;;;;;;;;;;;;;;;19.23;42.14;101323.63;4993480;28;19914;-66
2022/02/19 09:18:59;;;;;;;;;;;;;;;19.30;41.55;101327.47;4993252;28;19921;-67
2022/02/19 09:21:25;;;;;;;;;;;;;;;19.34;41.87;101317.50;4993418;28;19917;-65
2022/02/19 09:23:51;;;;;;;;;;;;;;;19.39;42.00;101325.88;4993794;28;19909;-67
2022/02/19 09:26:16;;;;;;;;;;;;;;;19.46;42.12;101329.75;4992787;28;20396;-66
2022/02/19 09:28:41;;;;;;;;;;;;;;;19.52;41.90;101331.06;4993836;28;19996;-67
2022/02/19 09:31:06;;;;;;;;;;;;;;;19.54;40.11;101322.03;4993361;28;20361;-73
2022/02/19 09:33:32;;;;;;;7.05;1.38;;;;;;;19.57;39.63;101321.78;4992335;28;19917;-67
2022/02/19 09:35:57;;;;;;;7.00;1.40;;;;;;;19.57;40.39;101318.31;4993406;28;20062;-68
2022/02/19 09:38:23;;;;;;;7.03;1.30;;;;;;;19.61;40.48;101314.44;4993166;28;20041;-68
2022/02/19 09:40:48;;;;;;;6.72;1.45;;;;;;;19.66;40.96;101314.09;4992552;28;20032;-65
2022/02/19 09:43:17;;;;;;;7.40;1.35;;;;;;;19.68;40.25;101315.66;4993099;28;20052;-69
2022/02/19 09:45:42;;;;;;;5.90;1.25;;;;;;;19.67;39.94;101324.53;4993058;28;20470;-64
2022/02/19 09:48:10;;;;;;;7.25;1.50;;;;;;;19.68;40.21;101325.41;4991997;28;20076;-69
2022/02/19 09:50:39;;;;;;;5.47;1.60;;;;;;;19.68;40.48;101314.81;4993143;28;20050;-66
2022/02/19 09:53:04;;;;;;;6.20;1.30;;;;;;;19.72;40.78;101317.06;4993083;28;20045;-68
2022/02/19 09:55:30;;;;;;;7.10;1.80;;;;;;;19.73;40.73;101331.16;4992022;28;20474;-66
2022/02/19 09:57:55;;;;;;;8.35;1.60;;;;;;;19.73;40.90;101324.03;4992897;28;20161;-66
2022/02/19 10:00:38;;;;;;;5.13;1.13;;;;;;;19.74;40.46;101335.44;4992062;28;20161;-68
2022/02/19 10:03:09;;;;;;;4.53;1.20;;;;;;;19.75;40.52;101342.44;4993241;28;20037;-66
2022/02/19 10:05:35;;;;;;;6.43;1.30;;;;;;;19.74;40.08;101336.31;4992714;28;20054;-68
2022/02/19 10:08:06;;;;;;;8.10;1.48;;;;;;;19.75;40.35;101342.44;4992169;28;20019;-68
2022/02/19 10:10:34;;;;;;;4.68;1.10;;;;;;;19.72;39.95;101343.50;4992704;28;20035;-67
2022/02/19 10:13:00;;;;;;;7.38;1.65;;;;;;;19.72;39.48;101334.75;4992805;28;20034;-68
2022/02/19 10:15:43;;;;;;;8.30;1.30;;;;;;;19.73;39.56;101344.38;4992126;28;20038;-69
2022/02/19 10:18:44;;;;;;;4.57;1.63;;;;;;;19.75;39.21;101342.44;4992506;28;20359;-69
2022/02/19 10:21:15;;;;;;;5.32;1.40;;;;;;;19.74;39.11;101344.25;4990256;28;20069;-69
2022/02/19 10:23:44;;;;;;;5.18;1.20;;;;;;;19.74;39.17;101338.97;4992081;28;20117;-68
2022/02/19 10:26:11;;;;;;;4.93;1.20;;;;;;;19.69;39.29;101348.22;4996363;28;20041;-68
2022/02/19 10:28:36;;;;;;;5.68;1.40;;;;;;;19.62;39.20;101354.97;4995807;28;20073;-68
2022/02/19 10:31:16;;;;;;;5.35;1.52;;;;;;;19.55;39.90;101346.66;4996693;28;20026;-69
2022/02/19 10:33:41;;;;;;;7.63;1.55;;;;;;;19.49;39.70;101337.44;4996525;28;20018;-68
2022/02/19 10:36:46;;;;;;;6.38;1.83;;;;;;;19.44;40.54;101342.25;4995658;28;20033;-69
2022/02/19 10:39:12;;;;;;;7.93;1.40;;;;;;;19.40;40.21;101362.78;4996052;28;20026;-69
2022/02/19 10:41:39;;;;;;;5.93;1.30;;;;;;;19.35;40.83;101357.00;4996381;28;20097;-68
2022/02/19 10:44:29;;;;;;;6.80;1.38;;;;;;;19.31;38.78;101366.16;4995569;28;20030;-66
2022/02/19 10:46:57;;;;;;;7.20;1.35;;;;;;;19.35;39.54;101350.91;4996546;28;20085;-68
2022/02/19 10:49:24;;;;;;;7.50;1.55;;;;;;;19.42;39.40;101359.19;4995880;28;20038;-67
2022/02/19 10:51:53;;;;;;;4.90;1.50;;;;;;;19.43;39.71;101340.56;4995398;28;20097;-66
2022/02/19 10:54:21;;;;;;;6.47;1.20;;;;;;;19.46;39.22;101352.69;4995932;28;20118;-69
2022/02/19 10:56:46;;;;;;;7.18;1.65;;;;;;;19.49;38.95;101355.09;4995313;28;20034;-68
2022/02/19 10:59:17;;;;;;;5.43;1.58;;;;;;;19.45;38.34;101366.88;4995930;28;20042;-67
2022/02/19 11:01:52;;;;;;;4.68;1.30;;;;;;;19.38;40.06;101369.16;4996226;28;20037;-67
2022/02/19 11:04:19;;;;;;;6.15;1.30;;;;;;;19.37;40.34;101363.00;4994646;28;20051;-67
2022/02/19 11:06:45;;;;;;;7.32;1.52;;;;;;;19.37;40.15;101359.53;4996546;28;20030;-73
2022/02/19 11:09:12;;;;;;;5.47;1.33;;;;;;;19.38;40.03;101361.22;4995413;28;20501;-66
2022/02/19 11:11:39;;;;;;;6.68;1.20;;;;;;;19.36;39.77;101364.00;4994874;28;20517;-67
2022/02/19 11:14:09;;;;;;;6.93;1.50;;;;;;;19.36;39.46;101360.50;4995864;28;20039;-66
2022/02/19 11:16:35;;;;;;;5.00;1.20;;;;;;;19.32;39.78;101357.25;4995690;28;20018;-66
2022/02/19 11:19:04;;;;;;;4.60;1.20;;;;;;;19.30;40.71;101361.00;4994907;28;20034;-65
2022/02/19 11:21:31;;;;;;;3.33;0.95;;;;;;;19.30;40.15;101374.22;4995239;28;20068;-66
2022/02/19 11:24:02;;;;;;;5.53;1.30;;;;;;;19.27;40.16;101361.22;4995403;28;20126;-65
2022/02/19 11:26:28;;;;;;;5.40;1.38;;;;;;;19.24;39.47;101354.38;4994603;28;20113;-66
2022/02/19 11:28:59;;;;;;;6.40;1.20;;;;;;;19.21;40.30;101355.44;4995358;28;20121;-66
2022/02/19 11:31:32;;;;;;;5.78;1.27;;;;;;;19.21;41.02;101367.81;4995047;28;20486;-67
2022/02/19 11:34:04;;;;;;;5.68;1.60;;;;;;;19.19;41.14;101354.72;4994724;28;20026;-67
2022/02/19 11:36:31;;;;;;;4.82;1.67;;;;;;;19.20;40.20;101363.47;4995118;28;20121;-67
2022/02/19 11:38:56;;;;;;;6.53;1.38;;;;;;;19.18;40.64;101347.78;4994692;28;20088;-70
2022/02/19 11:41:42;;;;;;;4.97;1.30;;;;;;;19.19;40.51;101349.44;4994656;28;20023;-70
2022/02/19 11:44:18;;;;;;;5.15;1.08;;;;;;;19.21;40.63;101349.31;4994995;28;20042;-68
2022/02/19 11:46:44;;;;;;;5.85;1.33;;;;;;;19.21;40.86;101344.88;4994272;28;20041;-68
2022/02/19 11:49:22;;;;;;;5.07;1.25;;;;;;;19.16;36.28;101344.41;4994843;28;20026;-68
2022/02/19 11:52:14;;;;;;;5.68;1.40;;;;;;;19.11;39.71;101340.44;4995092;28;20022;-66
2022/02/19 11:54:40;;;;;;;4.18;1.83;;;;;;;19.10;40.19;101318.44;4994287;28;20368;-65
2022/02/19 11:57:28;;;;;;;5.28;1.77;;;;;;;19.13;41.10;101317.38;4994764;28;20037;-70
2022/02/19 11:59:53;;;;;;;6.95;1.40;;;;;;;19.12;41.30;101308.63;4994892;28;20053;-67
2022/02/19 12:02:24;;;;;;;5.55;1.85;;;;;;;19.15;41.61;101307.53;4994008;28;20026;-66
2022/02/19 12:05:19;;;;;;;6.80;1.50;;;;;;;19.15;41.17;101310.16;4994859;28;20051;-68
2022/02/19 12:08:02;;;;;;;;;;;;;;;19.14;41.52;101308.50;4994492;28;20034;-69
2022/02/19 12:10:30;;;;;;;5.05;1.13;;;;;;;19.17;41.44;101308.28;4994293;28;19917;-69
2022/02/19 12:13:11;;;;;;;5.68;1.33;;;;;;;19.16;41.97;101304.75;4994731;28;20026;-68
2022/02/19 12:15:38;;;;;;;5.07;1.20;;;;;;;19.17;41.75;101295.06;4993778;28;20491;-69
2022/02/19 12:18:16;;;;;;;7.70;1.83;;;;;;;19.16;41.76;101294.19;4994437;28;20123;-67
2022/02/19 12:20:41;;;;;;;6.45;1.55;;;;;;;19.16;40.95;101288.09;4994571;28;20387;-69
2022/02/19 12:23:10;;;;;;;5.20;1.10;;;;;;;19.16;41.20;101302.13;4993376;28;20493;-68
2022/02/19 12:26:09;;;;;;;5.95;1.20;;;;;;;19.10;38.49;101289.38;4994334;28;20165;-69